Time;durP1;ratioP1;P1;durP2;ratioP2;P2;SDS_P1;SDS_P2;PMS_P1;PMS_P2;Temp;Humidity;BMP_temperature;BMP_pressure;BME280_temperature;BME280_humidity;BME280_pressure;Samples;Min_cycle;Max_cycle;Signal;HPM_P1;HPM_P2
2022/08/20 00:01:44;;;;;;;2.27;1.97;;;22.20;99.90;;;;;;5032645;28;20167;-69
2022/08/20 00:04:10;;;;;;;2.50;1.90;;;22.10;99.90;;;;;;5036420;28;20402;-69
2022/08/20 00:06:36;;;;;;;2.33;1.90;;;22.10;99.90;;;;;;5035981;28;20421;-69
2022/08/20 00:09:03;;;;;;;2.90;2.07;;;22.20;99.90;;;;;;5035785;28;20175;-69
2022/08/20 00:11:29;;;;;;;1.77;1.67;;;22.20;99.90;;;;;;5035526;28;20398;-70
2022/08/20 00:13:57;;;;;;;1.93;1.60;;;22.20;99.90;;;;;;5018145;28;20441;-70
2022/08/20 00:16:26;;;;;;;1.90;1.60;;;22.00;99.90;;;;;;5035996;28;20401;-69
2022/08/20 00:18:51;;;;;;;2.20;1.57;;;22.10;99.90;;;;;;5035890;28;20492;-70
2022/08/20 00:21:19;;;;;;;1.40;1.30;;;22.00;99.90;;;;;;5058947;23;20489;-70
2022/08/20 00:23:48;;;;;;;2.43;1.73;;;21.90;99.90;;;;;;5035686;28;20164;-70
2022/08/20 00:26:14;;;;;;;2.03;1.83;;;22.00;99.90;;;;;;5034047;28;20989;-71
2022/08/20 00:28:40;;;;;;;1.40;1.30;;;21.90;99.90;;;;;;5035891;28;20402;-70
2022/08/20 00:31:08;;;;;;;1.80;1.70;;;21.90;99.90;;;;;;5035586;28;20442;-70
2022/08/20 00:33:35;;;;;;;2.07;1.87;;;22.00;99.90;;;;;;5035491;28;20455;-70
2022/08/20 00:36:05;;;;;;;1.67;1.40;;;21.90;99.90;;;;;;5035759;28;20800;-70
2022/08/20 00:38:36;;;;;;;2.63;1.80;;;21.70;99.90;;;;;;5025899;28;20958;-70
2022/08/20 00:41:04;;;;;;;2.33;1.90;;;21.80;99.90;;;;;;5015525;28;20589;-71
2022/08/20 00:43:36;;;;;;;1.40;1.30;;;21.80;99.90;;;;;;5014967;28;20411;-70
2022/08/20 00:46:11;;;;;;;1.50;1.40;;;21.80;99.90;;;;;;5015871;28;20478;-70
2022/08/20 00:48:40;;;;;;;1.50;1.40;;;21.80;99.90;;;;;;5016277;28;20411;-70
2022/08/20 00:51:26;;;;;;;2.07;1.60;;;21.80;99.90;;;;;;5015682;28;20788;-70
2022/08/20 00:54:00;;;;;;;2.03;1.40;;;22.00;99.90;;;;;;5016281;28;20395;-70
2022/08/20 00:56:26;;;;;;;2.00;1.40;;;22.10;99.90;;;;;;5015052;28;20457;-71
2022/08/20 00:58:53;;;;;;;1.70;1.43;;;22.10;99.90;;;;;;5015752;28;20444;-70
2022/08/20 01:01:21;;;;;;;1.90;1.70;;;22.10;99.90;;;;;;5015163;28;20469;-71
2022/08/20 01:03:47;;;;;;;2.10;1.90;;;22.20;99.90;;;;;;5013601;28;20415;-70
2022/08/20 01:06:13;;;;;;;1.80;1.70;;;22.20;99.90;;;;;;5004120;28;20423;-70
2022/08/20 01:08:40;;;;;;;2.93;1.70;;;22.30;99.90;;;;;;4995819;28;20415;-70
2022/08/20 01:11:13;;;;;;;2.17;1.63;;;22.20;99.90;;;;;;4995793;28;20677;-72
2022/08/20 01:13:40;;;;;;;3.10;1.67;;;22.00;99.90;;;;;;4993802;28;20542;-70
2022/08/20 01:16:21;;;;;;;4.40;1.93;;;22.00;99.90;;;;;;4995597;28;20412;-70
2022/08/20 01:18:48;;;;;;;2.50;2.30;;;22.10;99.90;;;;;;4993943;28;20467;-70
2022/08/20 01:21:20;;;;;;;2.57;1.67;;;22.20;99.90;;;;;;4995185;28;20447;-69
2022/08/20 01:24:16;;;;;;;2.27;1.37;;;22.20;99.90;;;;;;4995154;28;20889;-70
2022/08/20 01:26:46;;;;;;;1.50;1.40;;;22.20;99.90;;;;;;5003625;28;20407;-70
2022/08/20 01:29:34;;;;;;;1.60;1.50;;;22.40;99.90;;;;;;5028245;28;20922;-70
2022/08/20 01:32:01;;;;;;;2.07;1.90;;;22.30;99.90;;;;;;5027847;28;20431;-70
2022/08/20 01:34:28;;;;;;;1.90;1.60;;;22.30;99.90;;;;;;5034262;28;20394;-70
2022/08/20 01:36:56;;;;;;;3.30;1.50;;;22.30;99.90;;;;;;5034209;28;20409;-70
2022/08/20 01:39:24;;;;;;;1.70;1.60;;;22.10;99.90;;;;;;5034503;28;20460;-69
2022/08/20 01:41:50;;;;;;;3.33;1.73;;;22.20;99.90;;;;;;5034377;28;20446;-70
2022/08/20 01:44:17;;;;;;;1.70;1.57;;;22.20;99.90;;;;;;5034036;28;20891;-70
2022/08/20 01:46:45;;;;;;;1.73;1.60;;;22.20;99.90;;;;;;5034516;28;20194;-69
2022/08/20 01:49:14;;;;;;;1.77;1.67;;;22.20;99.90;;;;;;5034338;28;20406;-70
2022/08/20 01:51:41;;;;;;;1.70;1.60;;;22.30;99.90;;;;;;5033998;28;20508;-70
2022/08/20 01:54:07;;;;;;;2.73;2.00;;;22.20;99.90;;;;;;5034455;28;20901;-70
2022/08/20 01:56:34;;;;;;;2.43;1.93;;;22.00;99.90;;;;;;5034202;28;20493;-70
2022/08/20 01:59:05;;;;;;;1.97;1.40;;;22.20;99.90;;;;;;5033314;28;20460;-70
2022/08/20 02:01:39;;;;;;;1.70;1.60;;;22.30;99.90;;;;;;5033970;28;20428;-70
2022/08/20 02:04:07;;;;;;;1.80;1.60;;;22.20;99.90;;;;;;5034123;28;20791;-70
2022/08/20 02:06:45;;;;;;;2.60;1.37;;;22.10;99.90;;;;;;5033746;28;20827;-69
2022/08/20 02:09:12;;;;;;;2.10;1.70;;;22.00;99.90;;;;;;5033710;28;20459;-70
2022/08/20 02:11:38;;;;;;;1.67;1.50;;;22.00;99.90;;;;;;5033592;28;20425;-70
2022/08/20 02:14:07;;;;;;;1.60;1.20;;;22.10;99.90;;;;;;5033459;28;20922;-70
2022/08/20 02:16:37;;;;;;;1.33;1.23;;;22.00;99.90;;;;;;5033826;28;20536;-70
2022/08/20 02:19:20;;;;;;;2.00;1.37;;;22.00;99.90;;;;;;5033568;28;20830;-70
2022/08/20 02:21:54;;;;;;;2.17;1.40;;;22.00;99.90;;;;;;5033430;28;20453;-71
2022/08/20 02:24:20;;;;;;;1.77;1.47;;;21.90;99.90;;;;;;5031880;28;20463;-70
2022/08/20 02:26:46;;;;;;;1.17;1.07;;;22.00;99.90;;;;;;5033141;28;20456;-69
2022/08/20 02:29:13;;;;;;;1.40;1.30;;;21.90;99.90;;;;;;5025472;28;20504;-69
2022/08/20 02:31:40;;;;;;;1.93;1.20;;;22.00;99.90;;;;;;5013533;28;20187;-70
2022/08/20 02:34:11;;;;;;;1.57;1.30;;;22.00;99.90;;;;;;5013618;28;20465;-70
2022/08/20 02:36:38;;;;;;;1.33;1.20;;;22.00;99.90;;;;;;5013871;28;20406;-70
2022/08/20 02:39:07;;;;;;;2.20;1.50;;;22.10;99.90;;;;;;5013513;28;20864;-70
2022/08/20 02:41:34;;;;;;;1.73;1.63;;;22.00;99.90;;;;;;5013477;28;20427;-70
2022/08/20 02:43:59;;;;;;;1.90;1.40;;;22.00;99.90;;;;;;5013048;28;20412;-70
2022/08/20 02:46:27;;;;;;;3.00;1.77;;;22.00;99.90;;;;;;5013942;28;20914;-70
2022/08/20 02:48:56;;;;;;;1.70;1.37;;;21.90;99.90;;;;;;5013416;28;20247;-70
2022/08/20 02:51:22;;;;;;;2.57;1.40;;;21.90;99.90;;;;;;5013262;28;20420;-71
2022/08/20 02:53:48;;;;;;;2.13;1.87;;;21.90;99.90;;;;;;5013365;28;20990;-70
2022/08/20 02:56:14;;;;;;;1.90;1.80;;;21.90;99.90;;;;;;5013213;28;20251;-70
2022/08/20 02:58:40;;;;;;;1.73;1.40;;;21.70;99.90;;;;;;5022652;28;20232;-71
2022/08/20 03:01:11;;;;;;;2.00;1.70;;;21.80;99.90;;;;;;5033552;28;20450;-70
2022/08/20 03:03:38;;;;;;;1.83;1.63;;;21.90;99.90;;;;;;5033040;28;20391;-71
2022/08/20 03:06:03;;;;;;;1.50;1.40;;;21.80;99.90;;;;;;5033427;28;20468;-71
2022/08/20 03:08:29;;;;;;;1.80;1.70;;;21.90;99.90;;;;;;5033052;28;20422;-71
2022/08/20 03:10:56;;;;;;;1.53;1.43;;;22.00;99.90;;;;;;5033114;28;20183;-71
2022/08/20 03:13:22;;;;;;;2.00;1.60;;;21.90;99.90;;;;;;5032534;28;20805;-71
2022/08/20 03:15:55;;;;;;;2.43;1.97;;;22.00;99.90;;;;;;5032817;28;20400;-70
2022/08/20 03:18:23;;;;;;;2.90;1.77;;;22.00;99.90;;;;;;5033006;28;20524;-71
2022/08/20 03:20:49;;;;;;;1.63;1.53;;;22.00;99.90;;;;;;5033013;28;20453;-70
2022/08/20 03:23:16;;;;;;;1.90;1.73;;;22.00;99.90;;;;;;5031468;28;20406;-70
2022/08/20 03:25:42;;;;;;;1.70;1.60;;;22.00;99.90;;;;;;5033043;28;20164;-70
2022/08/20 03:28:08;;;;;;;1.50;1.40;;;22.00;99.90;;;;;;5031037;28;20802;-70
2022/08/20 03:30:35;;;;;;;1.90;1.70;;;22.00;99.90;;;;;;5032268;28;20542;-70
2022/08/20 03:33:01;;;;;;;1.80;1.57;;;21.90;99.90;;;;;;5032648;28;20398;-70
2022/08/20 03:35:29;;;;;;;1.53;1.43;;;21.90;99.90;;;;;;5032601;28;20417;-70
2022/08/20 03:37:55;;;;;;;2.03;1.83;;;21.90;99.90;;;;;;5036079;28;20552;-69
2022/08/20 03:40:25;;;;;;;1.60;1.50;;;21.80;99.90;;;;;;5036814;28;20942;-70
2022/08/20 03:42:53;;;;;;;1.93;1.83;;;21.70;99.90;;;;;;5036730;28;20820;-69
2022/08/20 03:45:21;;;;;;;2.40;2.30;;;21.50;99.90;;;;;;5036201;28;20410;-70
2022/08/20 03:47:48;;;;;;;2.40;2.20;;;21.60;99.90;;;;;;5036852;28;20430;-70
2022/08/20 03:50:14;;;;;;;1.53;1.43;;;21.60;99.90;;;;;;5036234;28;20430;-70
2022/08/20 03:52:39;;;;;;;1.83;1.73;;;21.60;99.90;;;;;;5036229;28;20430;-70
2022/08/20 03:55:07;;;;;;;2.70;2.10;;;21.60;99.90;;;;;;5036438;28;20441;-70
2022/08/20 03:57:34;;;;;;;2.20;2.00;;;21.60;99.90;;;;;;5020237;28;20214;-70
2022/08/20 04:00:01;;;;;;;2.90;2.07;;;21.70;99.90;;;;;;5017552;28;20419;-69
2022/08/20 04:02:27;;;;;;;2.20;2.00;;;21.60;99.90;;;;;;5016438;28;20974;-70
2022/08/20 04:04:53;;;;;;;2.20;2.00;;;21.80;99.90;;;;;;5016291;28;20414;-71
2022/08/20 04:07:26;;;;;;;2.10;1.90;;;21.80;99.90;;;;;;5016474;28;20403;-71
2022/08/20 04:09:55;;;;;;;2.33;2.00;;;21.80;99.90;;;;;;5016610;28;20892;-71
2022/08/20 04:12:23;;;;;;;2.50;1.90;;;21.90;99.90;;;;;;5016168;28;20403;-71
2022/08/20 04:14:49;;;;;;;2.50;2.30;;;22.10;99.90;;;;;;5015579;28;20498;-71
2022/08/20 04:17:17;;;;;;;2.50;2.30;;;22.10;99.90;;;;;;5016017;28;20477;-71
2022/08/20 04:19:43;;;;;;;2.00;1.90;;;22.00;99.90;;;;;;5016082;28;20408;-71
2022/08/20 04:22:12;;;;;;;2.13;2.00;;;22.00;99.90;;;;;;5015415;28;20526;-71
2022/08/20 04:24:39;;;;;;;2.47;2.27;;;22.00;99.90;;;;;;5015923;28;20533;-71
2022/08/20 04:27:07;;;;;;;2.83;2.63;;;22.00;99.90;;;;;;5003452;28;20939;-71
2022/08/20 04:29:33;;;;;;;2.50;2.30;;;22.00;99.90;;;;;;5026071;28;20762;-71
2022/08/20 04:32:00;;;;;;;2.07;1.97;;;22.00;99.90;;;;;;5035561;28;20426;-71
2022/08/20 04:34:25;;;;;;;2.50;2.27;;;22.10;99.90;;;;;;5035489;28;20417;-71
2022/08/20 04:36:51;;;;;;;4.07;2.60;;;22.10;99.90;;;;;;5035676;28;20410;-71
2022/08/20 04:39:17;;;;;;;3.03;2.73;;;22.10;99.90;;;;;;5035415;28;20160;-70
2022/08/20 04:41:42;;;;;;;2.30;2.13;;;22.00;99.90;;;;;;5035274;28;20187;-69
2022/08/20 04:44:09;;;;;;;2.73;2.53;;;22.10;99.90;;;;;;5033647;28;20762;-71
2022/08/20 04:46:37;;;;;;;2.70;2.50;;;22.10;99.90;;;;;;5035431;28;20168;-71
2022/08/20 04:49:04;;;;;;;2.63;2.43;;;22.10;99.90;;;;;;5034310;28;20426;-71
2022/08/20 04:51:31;;;;;;;2.80;2.60;;;22.10;99.90;;;;;;5035123;28;20434;-71
2022/08/20 04:53:56;;;;;;;2.70;2.50;;;22.00;99.90;;;;;;5035150;28;20416;-71
2022/08/20 04:56:25;;;;;;;3.37;3.07;;;22.00;99.90;;;;;;5035376;28;20501;-70
2022/08/20 04:58:52;;;;;;;3.10;2.90;;;21.90;99.90;;;;;;5029050;28;20192;-71
2022/08/20 05:01:18;;;;;;;3.07;2.87;;;21.70;99.90;;;;;;5015396;28;20582;-70
2022/08/20 05:03:46;;;;;;;2.53;2.43;;;21.70;99.90;;;;;;5015225;28;20441;-70
2022/08/20 05:06:12;;;;;;;2.77;2.57;;;21.80;99.90;;;;;;5015433;28;20168;-70
2022/08/20 05:08:38;;;;;;;2.90;2.70;;;21.80;99.90;;;;;;5015056;28;20892;-71
2022/08/20 05:11:05;;;;;;;4.50;3.03;;;21.70;99.90;;;;;;5015272;28;20437;-70
2022/08/20 05:13:31;;;;;;;3.17;2.87;;;21.80;99.90;;;;;;5015132;28;20407;-70
2022/08/20 05:16:00;;;;;;;3.10;2.90;;;21.90;99.90;;;;;;5014787;28;20753;-70
2022/08/20 05:18:26;;;;;;;3.10;2.90;;;22.00;99.90;;;;;;5014858;28;20270;-70
2022/08/20 05:20:52;;;;;;;3.03;2.83;;;22.00;99.90;;;;;;5014905;28;20478;-70
2022/08/20 05:23:19;;;;;;;3.93;3.63;;;22.10;99.90;;;;;;5014942;28;20195;-70
2022/08/20 05:25:50;;;;;;;3.50;3.20;;;22.00;99.90;;;;;;5014722;28;20398;-70
2022/08/20 05:28:20;;;;;;;3.70;3.40;;;22.00;99.90;;;;;;5014722;28;20398;-71
2022/08/20 05:30:47;;;;;;;3.30;3.10;;;21.90;99.90;;;;;;5034075;28;20867;-74
2022/08/20 05:33:16;;;;;;;3.63;3.33;;;21.80;99.90;;;;;;5034753;28;20475;-71
2022/08/20 05:35:42;;;;;;;3.77;3.07;;;21.80;99.90;;;;;;5033417;28;20475;-70
2022/08/20 05:38:11;;;;;;;3.00;2.80;;;21.70;99.90;;;;;;5033311;28;21019;-69
2022/08/20 05:40:39;;;;;;;3.80;3.33;;;21.80;99.90;;;;;;5034607;28;20519;-70
2022/08/20 05:43:05;;;;;;;4.97;3.60;;;21.80;99.90;;;;;;5034394;28;20402;-70
2022/08/20 05:45:32;;;;;;;3.20;3.00;;;21.70;99.90;;;;;;5033896;28;20977;-70
2022/08/20 05:48:03;;;;;;;3.57;3.27;;;21.60;99.90;;;;;;5034232;28;20772;-70
2022/08/20 05:50:28;;;;;;;4.07;3.77;;;21.70;99.90;;;;;;5034418;28;20990;-70
2022/08/20 05:52:54;;;;;;;4.10;3.80;;;21.70;99.90;;;;;;5034214;28;20477;-70
2022/08/20 05:55:20;;;;;;;4.03;3.67;;;21.80;99.90;;;;;;5034206;28;20171;-70
2022/08/20 05:57:46;;;;;;;3.43;3.23;;;21.70;99.90;;;;;;5034231;28;20195;-70
2022/08/20 06:00:13;;;;;;;3.50;3.30;;;21.80;99.90;;;;;;5032438;28;20424;-70
2022/08/20 06:05:23;;;;;;;3.57;3.27;;;21.90;99.90;;;;;;5034440;28;20477;-70
2022/08/20 06:07:50;;;;;;;3.17;2.97;;;22.00;99.90;;;;;;5034020;28;20434;-70
2022/08/20 06:10:16;;;;;;;3.90;3.60;;;22.10;99.90;;;;;;5033690;28;20436;-70
2022/08/20 06:12:44;;;;;;;3.57;3.27;;;22.20;99.90;;;;;;5034003;28;20497;-70
2022/08/20 06:15:11;;;;;;;3.67;3.37;;;22.40;99.90;;;;;;5033466;28;20509;-70
2022/08/20 06:17:37;;;;;;;4.77;3.10;;;22.50;99.90;;;;;;5027082;28;20458;-71
2022/08/20 06:20:06;;;;;;;4.37;3.20;;;22.60;99.90;;;;;;5013607;28;20410;-70
2022/08/20 06:22:32;;;;;;;3.27;2.97;;;22.60;99.90;;;;;;5014230;28;20411;-70
2022/08/20 06:24:58;;;;;;;3.30;3.00;;;22.50;99.90;;;;;;5013857;28;20399;-70
2022/08/20 06:27:24;;;;;;;3.23;3.03;;;22.70;99.90;;;;;;5014065;28;20414;-70
2022/08/20 06:29:52;;;;;;;3.63;3.33;;;22.80;99.90;;;;;;5023182;28;20202;-71
2022/08/20 06:32:20;;;;;;;3.47;3.17;;;22.90;99.90;;;;;;5033769;28;20471;-71
2022/08/20 06:34:45;;;;;;;3.17;2.97;;;22.80;99.90;;;;;;5032191;28;20495;-71
2022/08/20 06:37:15;;;;;;;3.83;3.53;;;23.00;99.90;;;;;;5033218;28;20910;-71
2022/08/20 06:39:41;;;;;;;3.50;3.20;;;23.00;99.90;;;;;;5033195;28;20175;-71
2022/08/20 06:42:07;;;;;;;3.60;3.30;;;22.90;99.90;;;;;;5033479;28;20463;-71
2022/08/20 06:44:33;;;;;;;3.63;3.33;;;22.80;99.90;;;;;;5032718;28;20468;-71
2022/08/20 06:47:02;;;;;;;3.97;2.80;;;22.80;99.90;;;;;;5033403;28;20174;-70
2022/08/20 06:49:28;;;;;;;4.20;3.40;;;22.60;99.90;;;;;;5033146;28;20409;-70
2022/08/20 06:51:53;;;;;;;3.80;3.50;;;22.80;99.90;;;;;;5033035;28;20906;-71
2022/08/20 06:54:19;;;;;;;4.97;3.60;;;22.60;99.90;;;;;;5033351;28;20216;-71
2022/08/20 06:56:45;;;;;;;4.03;3.73;;;22.50;99.90;;;;;;5033367;28;20175;-70
2022/08/20 06:59:10;;;;;;;4.47;4.17;;;22.60;99.90;;;;;;5027464;28;20199;-69
2022/08/20 07:01:36;;;;;;;4.93;4.43;;;22.60;99.90;;;;;;5013336;28;20219;-70
2022/08/20 07:04:02;;;;;;;4.03;3.73;;;22.60;99.90;;;;;;5013478;28;20278;-70
2022/08/20 07:06:27;;;;;;;3.60;3.27;;;22.60;99.90;;;;;;5013442;28;20164;-70
2022/08/20 07:08:54;;;;;;;4.00;3.70;;;22.80;99.90;;;;;;5013491;28;20258;-69
2022/08/20 07:11:20;;;;;;;3.90;3.40;;;22.60;99.90;;;;;;5012909;28;20202;-70
2022/08/20 07:13:47;;;;;;;4.30;3.90;;;22.50;99.90;;;;;;5012963;28;20399;-70
2022/08/20 07:16:14;;;;;;;5.13;3.60;;;22.50;99.90;;;;;;5012911;28;20164;-70
2022/08/20 07:18:39;;;;;;;3.57;2.90;;;22.50;99.90;;;;;;5009827;28;20970;-69
2022/08/20 07:21:05;;;;;;;3.43;3.23;;;22.60;99.90;;;;;;5004173;28;20466;-70
2022/08/20 07:23:31;;;;;;;3.53;3.23;;;22.90;99.90;;;;;;5013156;28;20175;-70
2022/08/20 07:25:57;;;;;;;3.93;3.00;;;23.00;99.90;;;;;;5013391;28;20164;-70
2022/08/20 07:28:27;;;;;;;3.30;3.10;;;22.80;99.90;;;;;;5013184;28;20164;-70
2022/08/20 07:33:39;;;;;;;3.37;2.83;;;22.80;99.90;;;;;;5033274;28;20402;-70
2022/08/20 07:36:05;;;;;;;3.40;3.00;;;23.00;99.90;;;;;;5032590;28;20410;-70
2022/08/20 07:38:33;;;;;;;2.90;2.67;;;23.10;99.90;;;;;;5031351;28;20450;-70
2022/08/20 07:41:11;;;;;;;3.20;3.00;;;23.30;99.90;;;;;;5032448;28;20418;-70
2022/08/20 07:43:38;;;;;;;5.17;3.20;;;23.20;99.90;;;;;;5032639;28;20428;-70
2022/08/20 07:46:07;;;;;;;3.40;3.10;;;23.30;99.90;;;;;;5034519;28;20414;-70
2022/08/20 07:48:34;;;;;;;3.27;2.97;;;23.70;99.90;;;;;;5036103;28;20421;-70
2022/08/20 07:51:03;;;;;;;4.60;2.70;;;23.90;99.90;;;;;;5034991;28;20923;-70
2022/08/20 07:53:29;;;;;;;3.30;3.00;;;23.90;99.90;;;;;;5033019;28;20412;-70
2022/08/20 07:55:56;;;;;;;3.67;3.37;;;23.80;99.90;;;;;;5032590;28;20410;-70
2022/08/20 07:58:23;;;;;;;3.47;3.17;;;24.10;99.90;;;;;;5032727;28;20477;-70
2022/08/20 08:00:49;;;;;;;3.43;3.13;;;24.50;99.90;;;;;;5032480;28;20421;-70
2022/08/20 08:03:15;;;;;;;2.80;2.60;;;24.60;99.90;;;;;;5032621;28;20779;-70
2022/08/20 08:05:43;;;;;;;4.30;3.90;;;24.50;99.90;;;;;;5032593;28;20166;-70
2022/08/20 08:08:12;;;;;;;4.60;3.40;;;24.50;99.90;;;;;;5032588;28;20176;-70
2022/08/20 08:10:40;;;;;;;4.23;3.33;;;24.50;99.90;;;;;;5029959;28;20425;-70
2022/08/20 08:13:11;;;;;;;3.63;3.00;;;24.60;99.90;;;;;;5012343;28;20403;-70
2022/08/20 08:15:40;;;;;;;3.77;3.03;;;24.70;99.90;;;;;;5031010;28;20501;-69
2022/08/20 08:18:12;;;;;;;3.50;3.20;;;24.50;99.90;;;;;;5032129;28;20884;-70
2022/08/20 08:20:41;;;;;;;3.17;2.97;;;24.40;99.90;;;;;;5032114;28;20495;-70
2022/08/20 08:23:10;;;;;;;3.40;3.10;;;24.40;99.90;;;;;;5032661;28;20768;-70
2022/08/20 08:25:41;;;;;;;3.50;3.20;;;24.70;99.90;;;;;;5035587;28;20394;-70
2022/08/20 08:28:10;;;;;;;3.40;3.10;;;24.90;99.90;;;;;;5035878;28;20375;-69
2022/08/20 08:30:37;;;;;;;3.33;2.60;;;25.10;99.90;;;;;;5033593;28;20456;-69
2022/08/20 08:35:46;;;;;;;3.30;3.00;;;25.40;99.90;;;;;;5035806;28;20385;-70
2022/08/20 08:38:13;;;;;;;3.10;2.80;;;25.60;99.90;;;;;;5035327;28;20846;-69
2022/08/20 08:40:40;;;;;;;4.30;2.50;;;25.90;99.90;;;;;;5035305;28;20202;-70
2022/08/20 08:43:06;;;;;;;3.00;2.80;;;25.70;99.90;;;;;;5034005;28;20414;-70
2022/08/20 08:45:44;;;;;;;3.37;3.07;;;25.70;99.90;;;;;;5034758;28;20402;-70
2022/08/20 08:48:16;;;;;;;3.27;3.07;;;25.10;99.90;;;;;;5006060;28;20419;-70
2022/08/20 08:50:45;;;;;;;3.20;3.00;;;25.30;99.90;;;;;;5006109;28;20427;-71
2022/08/20 08:53:20;;;;;;;3.90;3.03;;;25.30;99.90;;;;;;5006232;28;20430;-70
2022/08/20 08:55:47;;;;;;;3.20;2.83;;;25.00;99.90;;;;;;5006245;28;20471;-70
2022/08/20 08:58:12;;;;;;;3.90;3.20;;;25.10;99.90;;;;;;5007066;28;20459;-68
2022/08/20 09:00:38;;;;;;;3.33;3.00;;;25.30;99.90;;;;;;5028611;28;20984;-70
2022/08/20 09:03:09;;;;;;;3.30;2.50;;;25.50;99.90;;;;;;5035193;28;20164;-69
2022/08/20 09:05:59;;;;;;;4.03;2.87;;;25.40;99.90;;;;;;5035310;28;20526;-69
2022/08/20 09:08:56;;;;;;;4.10;3.70;;;25.30;99.90;;;;;;5035123;28;20391;-69
2022/08/20 09:11:24;;;;;;;3.23;2.97;;;24.80;99.90;;;;;;5030711;28;20441;-70
2022/08/20 09:13:53;;;;;;;3.70;3.40;;;24.60;99.90;;;;;;5034855;28;20894;-69
2022/08/20 09:16:19;;;;;;;5.63;3.17;;;24.50;99.90;;;;;;5022727;28;20443;-70
2022/08/20 09:18:44;;;;;;;3.73;3.43;;;24.60;99.90;;;;;;5005714;28;20462;-71
2022/08/20 09:21:10;;;;;;;3.63;3.33;;;24.50;99.90;;;;;;5005502;28;20478;-71
2022/08/20 09:23:36;;;;;;;2.80;2.60;;;24.40;99.90;;;;;;5005984;28;20194;-71
2022/08/20 09:26:02;;;;;;;3.40;3.10;;;24.50;99.90;;;;;;5005691;28;20188;-72
2022/08/20 09:28:27;;;;;;;4.00;3.10;;;24.40;99.90;;;;;;5005737;28;20994;-71
2022/08/20 09:30:53;;;;;;;3.23;3.00;;;24.50;99.90;;;;;;5004918;28;20211;-70
2022/08/20 09:33:19;;;;;;;3.93;3.53;;;24.40;99.90;;;;;;5005256;28;20203;-71
2022/08/20 09:35:45;;;;;;;2.97;2.73;;;24.30;99.90;;;;;;5005067;28;20737;-71
2022/08/20 09:38:11;;;;;;;3.07;2.80;;;24.70;99.90;;;;;;5004064;28;20222;-70
2022/08/20 09:40:37;;;;;;;3.17;2.87;;;24.80;99.90;;;;;;5005473;28;20431;-71
2022/08/20 09:43:05;;;;;;;2.33;1.90;;;25.00;99.90;;;;;;5014177;28;20930;-69
2022/08/20 09:45:30;;;;;;;2.17;2.00;;;25.10;99.90;;;;;;5014876;28;20183;-70
2022/08/20 09:47:56;;;;;;;2.67;2.40;;;25.10;99.90;;;;;;5014737;28;20419;-69
2022/08/20 09:50:24;;;;;;;2.23;2.00;;;24.80;99.90;;;;;;5014505;28;20219;-69
2022/08/20 09:52:51;;;;;;;2.33;1.80;;;24.80;99.90;;;;;;5008094;28;20446;-70
2022/08/20 09:55:40;;;;;;;2.70;1.87;;;24.60;99.90;;;;;;5010789;28;20422;-70
2022/08/20 09:58:13;;;;;;;1.83;1.70;;;24.70;99.90;;;;;;5013861;28;20474;-69
2022/08/20 10:00:39;;;;;;;2.40;2.20;;;25.00;99.90;;;;;;5014363;28;20448;-69
2022/08/20 10:03:04;;;;;;;2.10;1.60;;;25.40;99.90;;;;;;5014206;28;20438;-69
2022/08/20 10:05:30;;;;;;;4.00;1.90;;;25.50;99.90;;;;;;5014323;28;20434;-70
2022/08/20 10:07:56;;;;;;;1.93;1.60;;;25.50;99.90;;;;;;5030883;28;20183;-69
2022/08/20 10:10:22;;;;;;;2.63;1.77;;;25.10;99.90;;;;;;5033752;28;20203;-68
2022/08/20 10:12:47;;;;;;;1.63;1.50;;;24.80;99.90;;;;;;5001875;28;20518;-69
2022/08/20 10:15:13;;;;;;;1.30;1.20;;;24.80;99.90;;;;;;5014488;28;20222;-69
2022/08/20 10:17:41;;;;;;;1.73;1.60;;;24.60;99.90;;;;;;5014387;28;20253;-69
2022/08/20 10:20:08;;;;;;;2.70;1.50;;;24.60;99.90;;;;;;5013362;28;20258;-69
2022/08/20 10:22:34;;;;;;;1.93;1.33;;;24.70;99.90;;;;;;5014069;28;20490;-70
2022/08/20 10:25:00;;;;;;;2.07;1.50;;;24.50;99.90;;;;;;5014120;28;20441;-68
2022/08/20 10:27:25;;;;;;;1.90;1.80;;;24.60;99.90;;;;;;5013448;28;20463;-70
2022/08/20 10:29:51;;;;;;;2.40;1.70;;;25.00;99.90;;;;;;5016504;28;20174;-69
2022/08/20 10:32:17;;;;;;;3.73;1.87;;;24.90;99.90;;;;;;5032365;28;20656;-70
2022/08/20 10:34:45;;;;;;;1.63;1.53;;;24.60;99.90;;;;;;5033680;28;20265;-69
2022/08/20 10:37:15;;;;;;;1.10;1.00;;;24.40;99.90;;;;;;5033592;28;20167;-69
2022/08/20 10:39:41;;;;;;;1.30;1.00;;;24.10;99.90;;;;;;5033346;28;20398;-70
2022/08/20 10:42:06;;;;;;;1.23;1.03;;;24.20;99.90;;;;;;5033216;28;20425;-69
2022/08/20 10:44:32;;;;;;;1.43;1.20;;;24.00;99.90;;;;;;5033393;28;20181;-70
2022/08/20 10:46:57;;;;;;;1.30;1.00;;;24.20;99.90;;;;;;5032185;28;20621;-69
2022/08/20 10:49:23;;;;;;;1.27;1.00;;;24.50;99.90;;;;;;5033183;28;20210;-69
2022/08/20 10:51:48;;;;;;;1.67;0.83;;;24.70;99.90;;;;;;5032996;28;20214;-70
2022/08/20 10:54:14;;;;;;;1.00;0.90;;;24.80;99.90;;;;;;5033710;28;20183;-70
2022/08/20 10:56:40;;;;;;;0.80;0.70;;;24.80;99.90;;;;;;5033164;28;20171;-69
2022/08/20 10:59:05;;;;;;;2.00;0.90;;;24.80;99.90;;;;;;5032997;28;20198;-70
2022/08/20 11:01:31;;;;;;;1.53;1.20;;;24.90;99.90;;;;;;5032430;28;20199;-69
2022/08/20 11:03:56;;;;;;;1.40;1.20;;;25.00;99.90;;;;;;5033047;28;20178;-69
2022/08/20 11:06:22;;;;;;;5.33;2.10;;;25.00;99.90;;;;;;5032986;28;20652;-69
2022/08/20 11:08:48;;;;;;;2.10;1.60;;;25.00;99.90;;;;;;5033153;28;20496;-70
2022/08/20 11:11:13;;;;;;;1.70;1.20;;;24.80;99.90;;;;;;5031542;28;20249;-69
2022/08/20 11:13:39;;;;;;;1.13;1.03;;;24.90;99.90;;;;;;5033158;28;20260;-69
2022/08/20 11:16:05;;;;;;;1.23;1.00;;;24.80;99.90;;;;;;5032762;28;20171;-70
2022/08/20 11:18:31;;;;;;;1.20;0.90;;;24.90;99.90;;;;;;5032738;28;20329;-70
2022/08/20 11:20:57;;;;;;;1.40;0.90;;;24.90;99.90;;;;;;5032950;28;20626;-70
2022/08/20 11:23:23;;;;;;;2.30;1.03;;;24.90;99.90;;;;;;5033051;28;20417;-70
2022/08/20 11:25:48;;;;;;;1.07;0.80;;;25.00;99.90;;;;;;5033593;28;20250;-70
2022/08/20 11:28:14;;;;;;;1.60;0.97;;;25.00;99.90;;;;;;5032214;28;20175;-70
2022/08/20 11:30:40;;;;;;;3.63;1.00;;;24.80;99.90;;;;;;5031314;28;20281;-70
2022/08/20 11:33:06;;;;;;;1.00;0.90;;;24.90;99.90;;;;;;5033093;28;20542;-70
2022/08/20 11:35:34;;;;;;;1.67;1.00;;;24.80;99.90;;;;;;5032794;28;20172;-70
2022/08/20 11:38:00;;;;;;;1.50;1.10;;;24.60;99.90;;;;;;5032773;28;20184;-69
2022/08/20 11:40:27;;;;;;;1.10;0.90;;;24.50;99.90;;;;;;5032376;28;20425;-69
2022/08/20 11:42:52;;;;;;;0.90;0.70;;;24.50;99.90;;;;;;5032631;28;20410;-69
2022/08/20 11:45:18;;;;;;;0.90;0.70;;;24.70;99.90;;;;;;5032438;28;20418;-69
2022/08/20 11:47:43;;;;;;;3.80;0.93;;;25.20;99.90;;;;;;5032588;28;20512;-69
2022/08/20 11:50:13;;;;;;;0.93;0.77;;;25.20;99.90;;;;;;5032621;28;20205;-69
2022/08/20 11:52:39;;;;;;;0.90;0.80;;;24.80;99.90;;;;;;5032633;28;20522;-69
2022/08/20 11:55:06;;;;;;;1.00;0.90;;;24.60;99.90;;;;;;5032428;28;20418;-69
2022/08/20 11:57:35;;;;;;;1.00;0.80;;;24.60;99.90;;;;;;5033693;28;20449;-69
2022/08/20 12:00:05;;;;;;;2.00;1.10;;;24.60;99.90;;;;;;5035792;28;20402;-69
2022/08/20 12:02:31;;;;;;;1.10;0.80;;;24.70;99.90;;;;;;5036194;28;20405;-69
2022/08/20 12:04:57;;;;;;;0.93;0.80;;;24.70;99.90;;;;;;5036151;28;20398;-69
2022/08/20 12:07:24;;;;;;;1.80;1.00;;;24.80;99.90;;;;;;5036032;28;20175;-69
2022/08/20 12:09:49;;;;;;;1.07;0.97;;;24.90;99.90;;;;;;5036258;28;20226;-69
2022/08/20 12:12:16;;;;;;;1.50;1.10;;;24.80;99.90;;;;;;5035911;28;20777;-69
2022/08/20 12:14:42;;;;;;;1.10;1.00;;;24.80;99.90;;;;;;5036073;28;20331;-69
2022/08/20 12:17:12;;;;;;;0.80;0.70;;;24.70;99.90;;;;;;5034336;28;20402;-70
2022/08/20 12:19:40;;;;;;;1.00;0.80;;;24.70;99.90;;;;;;5016081;28;20204;-69
2022/08/20 12:22:06;;;;;;;1.73;0.87;;;24.80;99.90;;;;;;5056986;22;20490;-69
2022/08/20 12:24:32;;;;;;;0.90;0.80;;;25.00;99.90;;;;;;5036477;28;20439;-70
2022/08/20 12:27:12;;;;;;;1.17;0.80;;;25.20;99.90;;;;;;5036052;28;20220;-69
2022/08/20 12:29:38;;;;;;;1.00;0.80;;;25.30;99.90;;;;;;5036153;28;20156;-69
2022/08/20 12:32:06;;;;;;;1.10;0.80;;;25.10;99.90;;;;;;5046039;28;20428;-69
2022/08/20 12:34:36;;;;;;;1.10;0.77;;;25.10;99.90;;;;;;5055611;28;20400;-68
2022/08/20 12:37:04;;;;;;;1.73;0.90;;;25.40;99.90;;;;;;5055845;28;20384;-68
2022/08/20 12:39:34;;;;;;;1.10;0.80;;;25.70;99.90;;;;;;5055914;28;20444;-69
2022/08/20 12:42:01;;;;;;;1.10;0.70;;;25.90;99.90;;;;;;5055566;28;20949;-68
2022/08/20 12:44:30;;;;;;;1.03;0.83;;;26.00;99.90;;;;;;5054198;28;20420;-69
2022/08/20 12:47:12;;;;;;;0.90;0.60;;;26.30;99.90;;;;;;5055042;28;20401;-70
2022/08/20 12:49:40;;;;;;;0.97;0.87;;;26.70;99.90;;;;;;5055342;28;20450;-70
2022/08/20 12:52:06;;;;;;;3.30;0.93;;;27.00;99.90;;;;;;5055091;28;20917;-69
2022/08/20 12:54:32;;;;;;;0.90;0.80;;;26.90;99.90;;;;;;5055801;28;20424;-70
2022/08/20 12:56:58;;;;;;;0.90;0.80;;;26.90;99.90;;;;;;5055173;28;20398;-70
2022/08/20 12:59:25;;;;;;;1.90;1.00;;;27.00;99.90;;;;;;5054920;28;20464;-69